sensor_id;sensor_type;location;lat;lon;timestamp;pressure;altitude;pressure_sealevel;temperature;humidity
13690;BME280;6917;52.194;9.894;2024-01-16T00:00:22;99042.97;;;3.94;81.04
13690;BME280;6917;52.194;9.894;2024-01-16T00:02:47;99046.47;;;3.81;81.40
13690;BME280;6917;52.194;9.894;2024-01-16T00:05:13;99066.19;;;3.95;81.45
13690;BME280;6917;52.194;9.894;2024-01-16T00:07:39;99066.88;;;3.87;81.28
13690;BME280;6917;52.194;9.894;2024-01-16T00:10:06;99078.72;;;3.91;81.27
13690;BME280;6917;52.194;9.894;2024-01-16T00:12:32;99074.78;;;3.97;81.07
13690;BME280;6917;52.194;9.894;2024-01-16T00:14:57;99067.91;;;3.91;80.79
13690;BME280;6917;52.194;9.894;2024-01-16T00:17:22;99075.28;;;3.85;80.63
13690;BME280;6917;52.194;9.894;2024-01-16T00:19:47;99067.38;;;3.75;80.92
13690;BME280;6917;52.194;9.894;2024-01-16T00:22:12;99075.47;;;3.89;81.15
13690;BME280;6917;52.194;9.894;2024-01-16T00:24:37;99089.59;;;4.00;80.89
13690;BME280;6917;52.194;9.894;2024-01-16T00:27:03;99071.19;;;3.88;80.64
13690;BME280;6917;52.194;9.894;2024-01-16T00:29:28;99087.38;;;3.88;80.86
13690;BME280;6917;52.194;9.894;2024-01-16T00:31:53;99099.91;;;3.98;80.64
13690;BME280;6917;52.194;9.894;2024-01-16T00:34:18;99115.13;;;4.07;80.32
13690;BME280;6917;52.194;9.894;2024-01-16T00:36:43;99096.28;;;3.75;79.80
13690;BME280;6917;52.194;9.894;2024-01-16T00:39:09;99081.97;;;3.74;80.18
13690;BME280;6917;52.194;9.894;2024-01-16T00:41:34;99097.19;;;3.84;79.69
13690;BME280;6917;52.194;9.894;2024-01-16T00:43:59;99096.22;;;3.80;80.21
13690;BME280;6917;52.194;9.894;2024-01-16T00:46:25;99104.50;;;3.97;80.09
13690;BME280;6917;52.194;9.894;2024-01-16T00:48:50;99106.59;;;3.86;80.03
13690;BME280;6917;52.194;9.894;2024-01-16T00:51:15;99119.72;;;3.93;79.77
13690;BME280;6917;52.194;9.894;2024-01-16T00:53:41;99120.91;;;3.87;79.52
13690;BME280;6917;52.194;9.894;2024-01-16T00:56:06;99123.03;;;3.76;79.68
13690;BME280;6917;52.194;9.894;2024-01-16T00:58:31;99119.50;;;3.76;79.43
13690;BME280;6917;52.194;9.894;2024-01-16T01:00:56;99127.53;;;3.95;79.01
13690;BME280;6917;52.194;9.894;2024-01-16T01:03:22;99133.63;;;4.00;78.78
13690;BME280;6917;52.194;9.894;2024-01-16T01:05:47;99109.31;;;3.86;78.48
13690;BME280;6917;52.194;9.894;2024-01-16T01:08:12;99107.69;;;3.58;77.95
13690;BME280;6917;52.194;9.894;2024-01-16T01:10:37;99130.84;;;3.92;77.85
13690;BME280;6917;52.194;9.894;2024-01-16T01:13:02;99107.69;;;3.72;77.36
13690;BME280;6917;52.194;9.894;2024-01-16T01:15:28;99127.53;;;3.81;77.52
13690;BME280;6917;52.194;9.894;2024-01-16T01:17:53;99130.72;;;3.83;77.29
13690;BME280;6917;52.194;9.894;2024-01-16T01:20:19;99137.22;;;3.82;77.31
13690;BME280;6917;52.194;9.894;2024-01-16T01:22:45;99142.16;;;3.94;77.06
13690;BME280;6917;52.194;9.894;2024-01-16T01:25:11;99139.13;;;3.81;77.44
13690;BME280;6917;52.194;9.894;2024-01-16T01:27:36;99149.53;;;3.88;77.24
13690;BME280;6917;52.194;9.894;2024-01-16T01:30:02;99147.13;;;3.86;77.55
13690;BME280;6917;52.194;9.894;2024-01-16T01:32:27;99140.50;;;3.65;77.43
13690;BME280;6917;52.194;9.894;2024-01-16T01:34:52;99161.13;;;3.88;77.64
13690;BME280;6917;52.194;9.894;2024-01-16T01:37:17;99150.94;;;3.85;77.75
13690;BME280;6917;52.194;9.894;2024-01-16T01:39:43;99155.72;;;3.88;78.23
13690;BME280;6917;52.194;9.894;2024-01-16T01:42:08;99150.69;;;3.54;78.56
13690;BME280;6917;52.194;9.894;2024-01-16T01:44:33;99150.31;;;3.75;78.46
13690;BME280;6917;52.194;9.894;2024-01-16T01:46:58;99166.25;;;3.76;78.72
13690;BME280;6917;52.194;9.894;2024-01-16T01:49:24;99171.41;;;3.73;78.49
13690;BME280;6917;52.194;9.894;2024-01-16T01:51:49;99174.34;;;3.76;78.40
13690;BME280;6917;52.194;9.894;2024-01-16T01:54:15;99182.16;;;3.92;78.62
13690;BME280;6917;52.194;9.894;2024-01-16T01:56:44;99171.03;;;3.79;78.68
13690;BME280;6917;52.194;9.894;2024-01-16T01:59:11;99185.63;;;3.65;79.15
13690;BME280;6917;52.194;9.894;2024-01-16T02:01:36;99190.06;;;3.88;79.52
13690;BME280;6917;52.194;9.894;2024-01-16T02:04:02;99193.06;;;3.86;79.24
13690;BME280;6917;52.194;9.894;2024-01-16T02:06:29;99172.50;;;3.72;79.29
13690;BME280;6917;52.194;9.894;2024-01-16T02:08:54;99179.47;;;3.59;79.25
13690;BME280;6917;52.194;9.894;2024-01-16T02:11:19;99202.81;;;3.69;79.63
13690;BME280;6917;52.194;9.894;2024-01-16T02:13:45;99196.31;;;3.70;79.38
13690;BME280;6917;52.194;9.894;2024-01-16T02:16:17;99207.28;;;3.92;78.76
13690;BME280;6917;52.194;9.894;2024-01-16T02:18:42;99185.34;;;3.80;78.18
13690;BME280;6917;52.194;9.894;2024-01-16T02:21:07;99195.72;;;3.73;78.13
13690;BME280;6917;52.194;9.894;2024-01-16T02:23:32;99210.78;;;3.93;77.61
13690;BME280;6917;52.194;9.894;2024-01-16T02:25:58;99192.13;;;3.64;77.70
13690;BME280;6917;52.194;9.894;2024-01-16T02:28:24;99193.63;;;3.70;77.50
13690;BME280;6917;52.194;9.894;2024-01-16T02:30:49;99194.72;;;3.69;77.81
13690;BME280;6917;52.194;9.894;2024-01-16T02:33:14;99194.72;;;3.69;77.81
13690;BME280;6917;52.194;9.894;2024-01-16T02:35:39;99203.94;;;3.68;77.47
13690;BME280;6917;52.194;9.894;2024-01-16T02:38:04;99203.94;;;3.68;77.47
13690;BME280;6917;52.194;9.894;2024-01-16T02:40:30;99202.06;;;3.49;77.12
13690;BME280;6917;52.194;9.894;2024-01-16T02:42:55;99202.06;;;3.49;77.12
13690;BME280;6917;52.194;9.894;2024-01-16T02:45:20;99202.06;;;3.49;77.12
13690;BME280;6917;52.194;9.894;2024-01-16T02:47:45;99202.06;;;3.49;77.12
13690;BME280;6917;52.194;9.894;2024-01-16T02:50:11;67352.69;;;-144.99;100.00
13690;BME280;6917;52.194;9.894;2024-01-16T02:52:36;67352.69;;;-144.99;100.00
13690;BME280;6917;52.194;9.894;2024-01-16T02:55:01;67352.69;;;-144.99;100.00
13690;BME280;6917;52.194;9.894;2024-01-16T02:57:26;67352.69;;;-144.99;100.00
13690;BME280;6917;52.194;9.894;2024-01-16T02:59:51;67352.69;;;-144.99;100.00
13690;BME280;6917;52.194;9.894;2024-01-16T03:02:17;67352.69;;;-144.99;100.00
13690;BME280;6917;52.194;9.894;2024-01-16T03:04:42;67352.69;;;-144.99;100.00
13690;BME280;6917;52.194;9.894;2024-01-16T03:07:07;67352.69;;;-144.99;100.00
13690;BME280;6917;52.194;9.894;2024-01-16T03:09:32;67352.69;;;-144.99;100.00
13690;BME280;6917;52.194;9.894;2024-01-16T03:11:58;67352.69;;;-144.99;100.00
13690;BME280;6917;52.194;9.894;2024-01-16T03:14:23;67352.69;;;-144.99;100.00
13690;BME280;6917;52.194;9.894;2024-01-16T03:16:48;67352.69;;;-144.99;100.00
13690;BME280;6917;52.194;9.894;2024-01-16T03:19:14;67352.69;;;-144.99;100.00
13690;BME280;6917;52.194;9.894;2024-01-16T03:21:39;67352.69;;;-144.99;100.00
13690;BME280;6917;52.194;9.894;2024-01-16T03:24:04;67352.69;;;-144.99;100.00
13690;BME280;6917;52.194;9.894;2024-01-16T03:26:30;67352.69;;;-144.99;100.00
13690;BME280;6917;52.194;9.894;2024-01-16T03:28:55;67352.69;;;-144.99;100.00
13690;BME280;6917;52.194;9.894;2024-01-16T03:31:21;67352.69;;;-144.99;100.00
13690;BME280;6917;52.194;9.894;2024-01-16T03:33:47;67352.69;;;-144.99;100.00
13690;BME280;6917;52.194;9.894;2024-01-16T03:36:12;67352.69;;;-144.99;100.00
13690;BME280;6917;52.194;9.894;2024-01-16T03:38:38;67352.69;;;-144.99;100.00
13690;BME280;6917;52.194;9.894;2024-01-16T03:41:03;67352.69;;;-144.99;100.00
13690;BME280;6917;52.194;9.894;2024-01-16T03:43:29;67352.69;;;-144.99;100.00
13690;BME280;6917;52.194;9.894;2024-01-16T03:45:56;67352.69;;;-144.99;100.00
13690;BME280;6917;52.194;9.894;2024-01-16T03:48:21;67352.69;;;-144.99;100.00
13690;BME280;6917;52.194;9.894;2024-01-16T03:50:47;67352.69;;;-144.99;100.00
13690;BME280;6917;52.194;9.894;2024-01-16T03:53:12;67352.69;;;-144.99;100.00
13690;BME280;6917;52.194;9.894;2024-01-16T03:55:37;67352.69;;;-144.99;100.00
13690;BME280;6917;52.194;9.894;2024-01-16T03:58:02;67352.69;;;-144.99;100.00
13690;BME280;6917;52.194;9.894;2024-01-16T04:00:28;67352.69;;;-144.99;100.00
13690;BME280;6917;52.194;9.894;2024-01-16T04:02:53;67352.69;;;-144.99;100.00
13690;BME280;6917;52.194;9.894;2024-01-16T04:05:18;67352.69;;;-144.99;100.00
13690;BME280;6917;52.194;9.894;2024-01-16T04:07:43;67352.69;;;-144.99;100.00
13690;BME280;6917;52.194;9.894;2024-01-16T04:10:08;67352.69;;;-144.99;100.00
13690;BME280;6917;52.194;9.894;2024-01-16T04:12:34;67352.69;;;-144.99;100.00
13690;BME280;6917;52.194;9.894;2024-01-16T04:14:59;67352.69;;;-144.99;100.00
13690;BME280;6917;52.194;9.894;2024-01-16T04:17:24;67352.69;;;-144.99;100.00
13690;BME280;6917;52.194;9.894;2024-01-16T04:19:49;67352.69;;;-144.99;100.00
13690;BME280;6917;52.194;9.894;2024-01-16T04:22:14;67352.69;;;-144.99;100.00
13690;BME280;6917;52.194;9.894;2024-01-16T04:24:39;67352.69;;;-144.99;100.00
13690;BME280;6917;52.194;9.894;2024-01-16T04:27:05;67352.69;;;-144.99;100.00
13690;BME280;6917;52.194;9.894;2024-01-16T04:29:30;67352.69;;;-144.99;100.00
13690;BME280;6917;52.194;9.894;2024-01-16T04:31:56;67352.69;;;-144.99;100.00
13690;BME280;6917;52.194;9.894;2024-01-16T04:34:21;67352.69;;;-144.99;100.00
13690;BME280;6917;52.194;9.894;2024-01-16T04:36:47;67352.69;;;-144.99;100.00
13690;BME280;6917;52.194;9.894;2024-01-16T04:39:12;67352.69;;;-144.99;100.00
13690;BME280;6917;52.194;9.894;2024-01-16T04:41:37;67352.69;;;-144.99;100.00
13690;BME280;6917;52.194;9.894;2024-01-16T04:44:02;67352.69;;;-144.99;100.00
13690;BME280;6917;52.194;9.894;2024-01-16T04:46:27;67352.69;;;-144.99;100.00
13690;BME280;6917;52.194;9.894;2024-01-16T04:48:53;67352.69;;;-144.99;100.00
13690;BME280;6917;52.194;9.894;2024-01-16T04:51:18;67352.69;;;-144.99;100.00
13690;BME280;6917;52.194;9.894;2024-01-16T04:53:43;67352.69;;;-144.99;100.00
13690;BME280;6917;52.194;9.894;2024-01-16T04:56:08;67352.69;;;-144.99;100.00
13690;BME280;6917;52.194;9.894;2024-01-16T04:58:33;67352.69;;;-144.99;100.00
13690;BME280;6917;52.194;9.894;2024-01-16T05:00:59;67352.69;;;-144.99;100.00
13690;BME280;6917;52.194;9.894;2024-01-16T05:03:24;67352.69;;;-144.99;100.00
13690;BME280;6917;52.194;9.894;2024-01-16T05:05:49;67352.69;;;-144.99;100.00
13690;BME280;6917;52.194;9.894;2024-01-16T05:08:14;67352.69;;;-144.99;100.00
13690;BME280;6917;52.194;9.894;2024-01-16T05:10:39;67352.69;;;-144.99;100.00
13690;BME280;6917;52.194;9.894;2024-01-16T05:13:05;67352.69;;;-144.99;100.00
13690;BME280;6917;52.194;9.894;2024-01-16T05:15:30;67352.69;;;-144.99;100.00
13690;BME280;6917;52.194;9.894;2024-01-16T05:17:55;67352.69;;;-144.99;100.00
13690;BME280;6917;52.194;9.894;2024-01-16T05:20:20;67352.69;;;-144.99;100.00
13690;BME280;6917;52.194;9.894;2024-01-16T05:22:46;67352.69;;;-144.99;100.00
13690;BME280;6917;52.194;9.894;2024-01-16T05:25:12;67352.69;;;-144.99;100.00
13690;BME280;6917;52.194;9.894;2024-01-16T05:27:37;67352.69;;;-144.99;100.00
13690;BME280;6917;52.194;9.894;2024-01-16T05:30:02;67352.69;;;-144.99;100.00
13690;BME280;6917;52.194;9.894;2024-01-16T05:32:28;67352.69;;;-144.99;100.00
13690;BME280;6917;52.194;9.894;2024-01-16T05:34:53;67352.69;;;-144.99;100.00
13690;BME280;6917;52.194;9.894;2024-01-16T05:37:19;67352.69;;;-144.99;100.00
13690;BME280;6917;52.194;9.894;2024-01-16T05:39:44;67352.69;;;-144.99;100.00
13690;BME280;6917;52.194;9.894;2024-01-16T05:42:09;67352.69;;;-144.99;100.00
13690;BME280;6917;52.194;9.894;2024-01-16T05:44:36;67352.69;;;-144.99;100.00
13690;BME280;6917;52.194;9.894;2024-01-16T05:47:01;67352.69;;;-144.99;100.00
13690;BME280;6917;52.194;9.894;2024-01-16T05:49:27;67352.69;;;-144.99;100.00
13690;BME280;6917;52.194;9.894;2024-01-16T05:51:52;67352.69;;;-144.99;100.00
13690;BME280;6917;52.194;9.894;2024-01-16T05:54:17;67352.69;;;-144.99;100.00
13690;BME280;6917;52.194;9.894;2024-01-16T05:56:42;67352.69;;;-144.99;100.00
13690;BME280;6917;52.194;9.894;2024-01-16T05:59:08;67352.69;;;-144.99;100.00
13690;BME280;6917;52.194;9.894;2024-01-16T06:01:33;67352.69;;;-144.99;100.00
13690;BME280;6917;52.194;9.894;2024-01-16T06:03:58;67352.69;;;-144.99;100.00
13690;BME280;6917;52.194;9.894;2024-01-16T06:06:23;67352.69;;;-144.99;100.00
13690;BME280;6917;52.194;9.894;2024-01-16T06:08:49;67352.69;;;-144.99;100.00
13690;BME280;6917;52.194;9.894;2024-01-16T06:11:14;67352.69;;;-144.99;100.00
13690;BME280;6917;52.194;9.894;2024-01-16T06:13:39;67352.69;;;-144.99;100.00
13690;BME280;6917;52.194;9.894;2024-01-16T06:16:08;67352.69;;;-144.99;100.00
13690;BME280;6917;52.194;9.894;2024-01-16T06:18:34;67352.69;;;-144.99;100.00
13690;BME280;6917;52.194;9.894;2024-01-16T06:20:59;67352.69;;;-144.99;100.00
13690;BME280;6917;52.194;9.894;2024-01-16T06:23:25;67352.69;;;-144.99;100.00
13690;BME280;6917;52.194;9.894;2024-01-16T06:25:50;67352.69;;;-144.99;100.00
13690;BME280;6917;52.194;9.894;2024-01-16T06:28:15;67352.69;;;-144.99;100.00
13690;BME280;6917;52.194;9.894;2024-01-16T06:30:40;67352.69;;;-144.99;100.00
13690;BME280;6917;52.194;9.894;2024-01-16T06:33:05;67352.69;;;-144.99;100.00
13690;BME280;6917;52.194;9.894;2024-01-16T06:35:31;67352.69;;;-144.99;100.00
13690;BME280;6917;52.194;9.894;2024-01-16T06:37:56;67352.69;;;-144.99;100.00
13690;BME280;6917;52.194;9.894;2024-01-16T06:40:21;67352.69;;;-144.99;100.00
13690;BME280;6917;52.194;9.894;2024-01-16T06:42:46;67352.69;;;-144.99;100.00
13690;BME280;6917;52.194;9.894;2024-01-16T06:45:11;67352.69;;;-144.99;100.00
13690;BME280;6917;52.194;9.894;2024-01-16T06:47:38;67352.69;;;-144.99;100.00
13690;BME280;6917;52.194;9.894;2024-01-16T06:50:04;67352.69;;;-144.99;100.00
13690;BME280;6917;52.194;9.894;2024-01-16T06:52:29;67352.69;;;-144.99;100.00
13690;BME280;6917;52.194;9.894;2024-01-16T06:54:54;67352.69;;;-144.99;100.00
13690;BME280;6917;52.194;9.894;2024-01-16T06:57:21;67352.69;;;-144.99;100.00
13690;BME280;6917;52.194;9.894;2024-01-16T06:59:46;67352.69;;;-144.99;100.00
13690;BME280;6917;52.194;9.894;2024-01-16T07:02:12;67352.69;;;-144.99;100.00
13690;BME280;6917;52.194;9.894;2024-01-16T07:04:37;67352.69;;;-144.99;100.00
13690;BME280;6917;52.194;9.894;2024-01-16T07:07:02;67352.69;;;-144.99;100.00
13690;BME280;6917;52.194;9.894;2024-01-16T07:09:28;67352.69;;;-144.99;100.00
13690;BME280;6917;52.194;9.894;2024-01-16T07:11:53;67352.69;;;-144.99;100.00
13690;BME280;6917;52.194;9.894;2024-01-16T07:14:19;67352.69;;;-144.99;100.00
13690;BME280;6917;52.194;9.894;2024-01-16T07:16:44;67352.69;;;-144.99;100.00
13690;BME280;6917;52.194;9.894;2024-01-16T07:19:09;67352.69;;;-144.99;100.00
13690;BME280;6917;52.194;9.894;2024-01-16T07:21:35;67352.69;;;-144.99;100.00
13690;BME280;6917;52.194;9.894;2024-01-16T07:24:00;67352.69;;;-144.99;100.00
13690;BME280;6917;52.194;9.894;2024-01-16T07:26:25;67352.69;;;-144.99;100.00
13690;BME280;6917;52.194;9.894;2024-01-16T07:28:50;67352.69;;;-144.99;100.00
13690;BME280;6917;52.194;9.894;2024-01-16T07:31:16;67352.69;;;-144.99;100.00
13690;BME280;6917;52.194;9.894;2024-01-16T07:33:41;67352.69;;;-144.99;100.00
13690;BME280;6917;52.194;9.894;2024-01-16T07:36:07;67352.69;;;-144.99;100.00
13690;BME280;6917;52.194;9.894;2024-01-16T07:38:32;67352.69;;;-144.99;100.00
13690;BME280;6917;52.194;9.894;2024-01-16T07:40:58;67352.69;;;-144.99;100.00
13690;BME280;6917;52.194;9.894;2024-01-16T07:43:23;67352.69;;;-144.99;100.00
13690;BME280;6917;52.194;9.894;2024-01-16T07:45:49;67352.69;;;-144.99;100.00
13690;BME280;6917;52.194;9.894;2024-01-16T07:48:14;67352.69;;;-144.99;100.00
13690;BME280;6917;52.194;9.894;2024-01-16T07:50:39;67352.69;;;-144.99;100.00
13690;BME280;6917;52.194;9.894;2024-01-16T07:53:05;67352.69;;;-144.99;100.00
13690;BME280;6917;52.194;9.894;2024-01-16T07:55:31;67352.69;;;-144.99;100.00
13690;BME280;6917;52.194;9.894;2024-01-16T07:57:56;67352.69;;;-144.99;100.00
13690;BME280;6917;52.194;9.894;2024-01-16T08:00:21;67352.69;;;-144.99;100.00
13690;BME280;6917;52.194;9.894;2024-01-16T08:02:47;67352.69;;;-144.99;100.00
13690;BME280;6917;52.194;9.894;2024-01-16T08:05:12;67352.69;;;-144.99;100.00
13690;BME280;6917;52.194;9.894;2024-01-16T08:07:38;67352.69;;;-144.99;100.00
13690;BME280;6917;52.194;9.894;2024-01-16T08:10:03;67352.69;;;-144.99;100.00
13690;BME280;6917;52.194;9.894;2024-01-16T08:12:28;67352.69;;;-144.99;100.00
13690;BME280;6917;52.194;9.894;2024-01-16T08:14:53;67352.69;;;-144.99;100.00
13690;BME280;6917;52.194;9.894;2024-01-16T08:17:19;67352.69;;;-144.99;100.00
13690;BME280;6917;52.194;9.894;2024-01-16T08:19:44;67352.69;;;-144.99;100.00
13690;BME280;6917;52.194;9.894;2024-01-16T08:22:09;67352.69;;;-144.99;100.00
13690;BME280;6917;52.194;9.894;2024-01-16T08:24:34;67352.69;;;-144.99;100.00
13690;BME280;6917;52.194;9.894;2024-01-16T08:26:59;67352.69;;;-144.99;100.00
13690;BME280;6917;52.194;9.894;2024-01-16T08:29:24;67352.69;;;-144.99;100.00
13690;BME280;6917;52.194;9.894;2024-01-16T08:31:50;67352.69;;;-144.99;100.00
13690;BME280;6917;52.194;9.894;2024-01-16T08:34:17;67352.69;;;-144.99;100.00
13690;BME280;6917;52.194;9.894;2024-01-16T08:36:42;67352.69;;;-144.99;100.00
13690;BME280;6917;52.194;9.894;2024-01-16T08:39:07;67352.69;;;-144.99;100.00
13690;BME280;6917;52.194;9.894;2024-01-16T08:41:32;67352.69;;;-144.99;100.00
13690;BME280;6917;52.194;9.894;2024-01-16T08:43:58;67352.69;;;-144.99;100.00
13690;BME280;6917;52.194;9.894;2024-01-16T08:46:23;67352.69;;;-144.99;100.00
13690;BME280;6917;52.194;9.894;2024-01-16T08:48:48;67352.69;;;-144.99;100.00
13690;BME280;6917;52.194;9.894;2024-01-16T08:51:14;67352.69;;;-144.99;100.00
13690;BME280;6917;52.194;9.894;2024-01-16T08:53:39;67352.69;;;-144.99;100.00
13690;BME280;6917;52.194;9.894;2024-01-16T08:56:05;67352.69;;;-144.99;100.00
13690;BME280;6917;52.194;9.894;2024-01-16T08:58:33;67352.69;;;-144.99;100.00
13690;BME280;6917;52.194;9.894;2024-01-16T09:01:04;67352.69;;;-144.99;100.00
13690;BME280;6917;52.194;9.894;2024-01-16T09:03:35;67352.69;;;-144.99;100.00
13690;BME280;6917;52.194;9.894;2024-01-16T09:06:01;67352.69;;;-144.99;100.00
13690;BME280;6917;52.194;9.894;2024-01-16T09:08:26;67352.69;;;-144.99;100.00
13690;BME280;6917;52.194;9.894;2024-01-16T09:10:55;67352.69;;;-144.99;100.00
13690;BME280;6917;52.194;9.894;2024-01-16T09:13:21;67352.69;;;-144.99;100.00
13690;BME280;6917;52.194;9.894;2024-01-16T09:15:47;67352.69;;;-144.99;100.00
13690;BME280;6917;52.194;9.894;2024-01-16T09:18:14;67352.69;;;-144.99;100.00
13690;BME280;6917;52.194;9.894;2024-01-16T09:20:39;67352.69;;;-144.99;100.00
13690;BME280;6917;52.194;9.894;2024-01-16T09:23:04;67352.69;;;-144.99;100.00
13690;BME280;6917;52.194;9.894;2024-01-16T09:25:29;67352.69;;;-144.99;100.00
13690;BME280;6917;52.194;9.894;2024-01-16T09:27:55;67352.69;;;-144.99;100.00
13690;BME280;6917;52.194;9.894;2024-01-16T09:30:20;67352.69;;;-144.99;100.00
13690;BME280;6917;52.194;9.894;2024-01-16T09:32:47;67352.69;;;-144.99;100.00
13690;BME280;6917;52.194;9.894;2024-01-16T09:35:12;67352.69;;;-144.99;100.00
13690;BME280;6917;52.194;9.894;2024-01-16T09:37:38;67352.69;;;-144.99;100.00
13690;BME280;6917;52.194;9.894;2024-01-16T09:40:05;67352.69;;;-144.99;100.00
13690;BME280;6917;52.194;9.894;2024-01-16T09:42:30;67352.69;;;-144.99;100.00
13690;BME280;6917;52.194;9.894;2024-01-16T09:44:55;67352.69;;;-144.99;100.00
13690;BME280;6917;52.194;9.894;2024-01-16T09:47:21;67352.69;;;-144.99;100.00
13690;BME280;6917;52.194;9.894;2024-01-16T09:49:47;67352.69;;;-144.99;100.00
13690;BME280;6917;52.194;9.894;2024-01-16T09:52:13;67352.69;;;-144.99;100.00
13690;BME280;6917;52.194;9.894;2024-01-16T09:54:39;67352.69;;;-144.99;100.00
13690;BME280;6917;52.194;9.894;2024-01-16T09:57:04;67352.69;;;-144.99;100.00
13690;BME280;6917;52.194;9.894;2024-01-16T09:59:32;67352.69;;;-144.99;100.00
13690;BME280;6917;52.194;9.894;2024-01-16T10:01:57;67352.69;;;-144.99;100.00
13690;BME280;6917;52.194;9.894;2024-01-16T10:04:26;67352.69;;;-144.99;100.00
13690;BME280;6917;52.194;9.894;2024-01-16T10:06:52;67352.69;;;-144.99;100.00
13690;BME280;6917;52.194;9.894;2024-01-16T10:09:19;67352.69;;;-144.99;100.00
13690;BME280;6917;52.194;9.894;2024-01-16T10:11:44;67352.69;;;-144.99;100.00
13690;BME280;6917;52.194;9.894;2024-01-16T10:14:10;67352.69;;;-144.99;100.00
13690;BME280;6917;52.194;9.894;2024-01-16T10:16:54;67352.69;;;-144.99;100.00
13690;BME280;6917;52.194;9.894;2024-01-16T10:19:20;67352.69;;;-144.99;100.00
13690;BME280;6917;52.194;9.894;2024-01-16T10:21:46;67352.69;;;-144.99;100.00
13690;BME280;6917;52.194;9.894;2024-01-16T10:24:11;67352.69;;;-144.99;100.00
13690;BME280;6917;52.194;9.894;2024-01-16T10:26:38;67352.69;;;-144.99;100.00
13690;BME280;6917;52.194;9.894;2024-01-16T10:29:03;67352.69;;;-144.99;100.00
13690;BME280;6917;52.194;9.894;2024-01-16T10:31:29;67352.69;;;-144.99;100.00
13690;BME280;6917;52.194;9.894;2024-01-16T10:33:55;67352.69;;;-144.99;100.00
13690;BME280;6917;52.194;9.894;2024-01-16T10:36:20;67352.69;;;-144.99;100.00
13690;BME280;6917;52.194;9.894;2024-01-16T10:38:47;67352.69;;;-144.99;100.00
13690;BME280;6917;52.194;9.894;2024-01-16T10:41:12;67352.69;;;-144.99;100.00
13690;BME280;6917;52.194;9.894;2024-01-16T10:43:38;67352.69;;;-144.99;100.00
13690;BME280;6917;52.194;9.894;2024-01-16T10:46:11;67352.69;;;-144.99;100.00
13690;BME280;6917;52.194;9.894;2024-01-16T10:48:37;67352.69;;;-144.99;100.00
13690;BME280;6917;52.194;9.894;2024-01-16T10:51:02;67352.69;;;-144.99;100.00
13690;BME280;6917;52.194;9.894;2024-01-16T10:53:31;67352.69;;;-144.99;100.00
13690;BME280;6917;52.194;9.894;2024-01-16T10:55:57;67352.69;;;-144.99;100.00
13690;BME280;6917;52.194;9.894;2024-01-16T10:58:24;67352.69;;;-144.99;100.00
13690;BME280;6917;52.194;9.894;2024-01-16T11:00:51;67352.69;;;-144.99;100.00
13690;BME280;6917;52.194;9.894;2024-01-16T11:03:38;67352.69;;;-144.99;100.00
13690;BME280;6917;52.194;9.894;2024-01-16T11:06:05;67352.69;;;-144.99;100.00
13690;BME280;6917;52.194;9.894;2024-01-16T11:08:31;67352.69;;;-144.99;100.00
13690;BME280;6917;52.194;9.894;2024-01-16T11:10:59;67352.69;;;-144.99;100.00
13690;BME280;6917;52.194;9.894;2024-01-16T11:13:24;67352.69;;;-144.99;100.00
13690;BME280;6917;52.194;9.894;2024-01-16T11:15:50;67352.69;;;-144.99;100.00
13690;BME280;6917;52.194;9.894;2024-01-16T11:18:15;67352.69;;;-144.99;100.00
13690;BME280;6917;52.194;9.894;2024-01-16T11:20:41;67352.69;;;-144.99;100.00
13690;BME280;6917;52.194;9.894;2024-01-16T11:23:07;67352.69;;;-144.99;100.00
13690;BME280;6917;52.194;9.894;2024-01-16T11:25:33;67352.69;;;-144.99;100.00
13690;BME280;6917;52.194;9.894;2024-01-16T11:28:11;67352.69;;;-144.99;100.00
13690;BME280;6917;52.194;9.894;2024-01-16T11:30:37;67352.69;;;-144.99;100.00
13690;BME280;6917;52.194;9.894;2024-01-16T11:33:02;67352.69;;;-144.99;100.00
13690;BME280;6917;52.194;9.894;2024-01-16T11:35:36;67352.69;;;-144.99;100.00
13690;BME280;6917;52.194;9.894;2024-01-16T11:38:15;67352.69;;;-144.99;100.00
13690;BME280;6917;52.194;9.894;2024-01-16T11:40:41;67352.69;;;-144.99;100.00
13690;BME280;6917;52.194;9.894;2024-01-16T11:45:50;67352.69;;;-144.99;100.00
13690;BME280;6917;52.194;9.894;2024-01-16T11:48:16;67352.69;;;-144.99;100.00
13690;BME280;6917;52.194;9.894;2024-01-16T11:50:42;67352.69;;;-144.99;100.00
13690;BME280;6917;52.194;9.894;2024-01-16T11:53:08;67352.69;;;-144.99;100.00
13690;BME280;6917;52.194;9.894;2024-01-16T11:55:34;67352.69;;;-144.99;100.00
13690;BME280;6917;52.194;9.894;2024-01-16T12:00:47;67352.69;;;-144.99;100.00
13690;BME280;6917;52.194;9.894;2024-01-16T12:03:16;67352.69;;;-144.99;100.00
13690;BME280;6917;52.194;9.894;2024-01-16T12:05:43;67352.69;;;-144.99;100.00
13690;BME280;6917;52.194;9.894;2024-01-16T12:08:09;67352.69;;;-144.99;100.00
13690;BME280;6917;52.194;9.894;2024-01-16T12:10:35;67352.69;;;-144.99;100.00
13690;BME280;6917;52.194;9.894;2024-01-16T12:13:10;67352.69;;;-144.99;100.00
13690;BME280;6917;52.194;9.894;2024-01-16T12:15:37;67352.69;;;-144.99;100.00
13690;BME280;6917;52.194;9.894;2024-01-16T12:18:02;67352.69;;;-144.99;100.00
13690;BME280;6917;52.194;9.894;2024-01-16T12:20:31;67352.69;;;-144.99;100.00
13690;BME280;6917;52.194;9.894;2024-01-16T12:25:22;67352.69;;;-144.99;100.00
13690;BME280;6917;52.194;9.894;2024-01-16T12:27:57;67352.69;;;-144.99;100.00
13690;BME280;6917;52.194;9.894;2024-01-16T12:30:40;67352.69;;;-144.99;100.00
13690;BME280;6917;52.194;9.894;2024-01-16T12:33:11;67352.69;;;-144.99;100.00
13690;BME280;6917;52.194;9.894;2024-01-16T12:38:03;67352.69;;;-144.99;100.00
13690;BME280;6917;52.194;9.894;2024-01-16T12:40:30;67352.69;;;-144.99;100.00
13690;BME280;6917;52.194;9.894;2024-01-16T12:42:55;67352.69;;;-144.99;100.00
13690;BME280;6917;52.194;9.894;2024-01-16T12:45:21;67352.69;;;-144.99;100.00
13690;BME280;6917;52.194;9.894;2024-01-16T12:47:50;67352.69;;;-144.99;100.00
13690;BME280;6917;52.194;9.894;2024-01-16T12:50:20;67352.69;;;-144.99;100.00